AirNav   Everest Fuels
 
 694 users online  

S31 Lopez Island Airport
Lopez, Washington, USA

GOING TO LOPEZ?


FAA INFORMATION EFFECTIVE 05 DECEMBER 2019

Location

FAA Identifier: S31
Lat/Long: 48-29-02.1000N 122-56-15.6000W
48-29.035000N 122-56.260000W
48.4839167,-122.9376667
(estimated)
Elevation: 208.8 ft. / 63.6 m (surveyed)
Variation: 21E (1985)
From city: 3 miles N of LOPEZ, WA
Time zone: UTC -8 (UTC -7 during Daylight Saving Time)
Zip code: 98261

Airport Operations

Airport use: Open to the public
Activation date: 06/1963
Control tower: no
ARTCC: SEATTLE CENTER
FSS: SEATTLE FLIGHT SERVICE STATION
NOTAMs facility: SEA (NOTAM-D service available)
Attendance: UNATNDD
Wind indicator: lighted
Segmented circle: yes
Beacon: white-green (lighted land airport)
Operates sunset to sunrise.
Landing fee: yes

Airport Communications

CTAF: 128.25
WX ASOS at FHR (4 nm NW): 135.675 (360-378-8491)
WX AWOS-3 at ORS (14 nm N): 135.425 (360-376-6045)
WX AWOS-3 at OKH (17 nm SE): 132.775 (360-675-8431)

Nearby radio navigation aids

VOR radial/distance  VOR name  Freq  Var
CVVr310/16.7PENN COVE VOR/DME117.2019E
YYJr107/26.1VICTORIA VOR/DME113.7017E
HUHr187/31.1WHATCOM VORTAC113.0020E
YVRr150/36.6VANCOUVER VOR/DME115.9017E

 
NDB name  Hdg/Dist  Freq  Var  ID
FRIDAY HARBOR099/3.828417EFHR ..-. .... .-.
SKAGIT/BAY VIEW257/20.724016EBVS -... ...- ...
EDIZ HOOK025/27.833817ENOW -. --- .--

Airport Services

Parking: tiedowns
Airframe service: NONE
Powerplant service: NONE
Bottled oxygen: NONE
Bulk oxygen: NONE

Runway Information

Runway 16/34

Dimensions: 2905 x 61 ft. / 885 x 19 m
Surface: asphalt/grooved, in good condition
Weight bearing capacity: 
Single wheel: 12.5
Runway edge lights: medium intensity
TWY MARKED WITH REFLECTORS.
RUNWAY 16  RUNWAY 34
Latitude: 48-29.273623N48-28.795922N
Longitude: 122-56.262050W122-56.259615W
Elevation: 208.8 ft.162.9 ft.
Traffic pattern: rightleft
Markings: basic, in fair conditionbasic, in fair condition
Visual slope indicator: 2-light PAPI on left (4.00 degrees glide path)2-light PAPI on left (4.00 degrees glide path)
Runway end identifier lights: yesyes
Touchdown point: yes, no lightsyes, no lights
Obstructions: 87 ft. trees, 1948 ft. from runway, 20:1 slope to clear60 ft. trees, 900 ft. from runway, 11:1 slope to clear

Airport Ownership and Management from official FAA records

Ownership: Publicly-owned
Owner: PORT OF LOPEZ
PO BOX 907
LOPEZ, WA 98261
Phone 360-468-4116
Manager: RICK HOFFMAN
PO BOX 907
LOPEZ, WA 98261
Phone 360-468-4116

Airport Operational Statistics

Aircraft based on the field: 24
Single engine airplanes: 23
Multi engine airplanes: 1
    
Aircraft operations: avg 27/day *
67% transient general aviation
25% air taxi
8% local general aviation
* for 12-month period ending 31 December 2018

Additional Remarks

RY 16/34 SOFT SHOULDERS & THLDS.
FOR CD CTC WHIDBEY APCH AT 360-257-3310.

Instrument Procedures

There are no published instrument procedures at S31.

Some nearby airports with instrument procedures:

KFHR - Friday Harbor Airport (4 nm NW)
KORS - Orcas Island Airport (14 nm N)
KNUW - Whidbey Island Naval Air Station (Ault Field) (14 nm SE)
KOKH - AJ Eisenberg Airport (17 nm SE)
KBVS - Skagit Regional Airport (21 nm E)
 
Loc | Ops | Rwys | IFR | FBO | Links
Com | Nav | Svcs | Stats | Notes
Area around S31 (Lopez Island Airport)
 
Road maps at: MapQuest Bing Google
 
Aerial photo
WARNING: Photo may not be current or correct
Aerial photo of S31 (Lopez Island Airport)
Photo by Peter Sauerwein
Photo taken 22-Jun-2011
looking north.

Do you have a better or more recent aerial photo of Lopez Island Airport that you would like to share? If so, please send us your photo.

 
Sectional chart

 
Airport distance calculator
Flying to Lopez Island Airport? Find the distance to fly.

From to S31

Sunrise and sunset
Times for 15-Dec-2019
 Local
(UTC-8)
 Zulu
(UTC)
Morning civil twilight07:2115:21
Sunrise07:5815:58
Sunset16:1600:16
Evening civil twilight16:5300:53

Current date and time
Zulu (UTC)  15-Dec-2019 14:43:34
Local (UTC-8)  15-Dec-2019 06:43:34
 
METAR
KFHR 
4nm NW 
151353Z AUTO 00000KT 10SM OVC039 02/02 A3011 RMK AO2 SLP196 I1000 T00220022
CWZO 
12nm W 
151400Z AUTO 34008KT RMK AO1
KORS 
13nm N 
151415Z AUTO 00000KT 10SM FEW022 SCT034 OVC042 04/04 A3009 RMK AO2
CWYJ 
14nm W 
151400Z AUTO 32002KT 01/M00 RMK AO1 SLP194 T00051003 53008
KNUW 
14nm SE 
151356Z 15004KT 10SM SCT021 BKN033 BKN060 06/03 A3014 RMK AO2 RAB02E34 SLP205 P0000 T00560028 $
CWLM 
16nm W 
151400Z AUTO 31006KT 03/01 RMK AO1 SLP193 T00280006 53008
CYWH 
16nm W 
151400Z 00000KT 15SM FEW008 SCT035 02/01 A3011 RMK SF2SC2 SLP196
CWEZ 
17nm N 
151400Z AUTO 32001KT 05/02 RMK AO1 SLP187 T00480024 53008
CWPF 
19nm W 
151415Z AUTO 02002KT 03/01 RMK AO1 SLP192 T00250014 53010
TAF
KNUW 
14nm SE 
1507/1607 VRB06KT 9000 VCSH BR SCT010 BKN025 BKN040 QNH3003INS TEMPO 1507/1513 8000 -RA BR BKN010 BKN020 OVC040 FM151300 VRB06KT 9999 VCSH SCT010 BKN020 OVC035 QNH3010INS TEMPO 1513/1519 8000 -RA BR BKN007 OVC020 FM151900 VRB06KT 9999 VCSH SCT010 BKN030 QNH3015INS TEMPO 1519/1601 6000 BR BKN010 BKN030 BKN050 FM160100 14008KT 9000 BR SCT015 BKN030 BKN060 QNH3021INS TEMPO 1601/1607 15006G12KT BKN015 BKN030 T04/1516Z T0/1520Z FS30149
CYWH 
16nm W 
141738Z 1418/1505 VRB03KT P6SM SCT005 SCT015 BKN030 TEMPO 1418/1505 4SM -SHRA BR BKN005 OVC015 RMK NXT FCST BY 150000Z
NOTAMs
Click for the latest NOTAMs
NOTAMs are issued by the DoD/FAA and will open in a separate window not controlled by AirNav.

 

 
 

Would you like to see your business listed on this page?

 If your business provides an interesting product or service to pilots, flight crews, aircraft, or users of the Lopez Island Airport, you should consider listing it here.  To start the listing process, click on the button below
 
Add a business
 

Other Pages about Lopez Island Airport

Update a link
 
Copyright © AirNav, LLC. All rights reserved. Privacy Policy  Contact